Sheffield Square, Vermont
Current Conditions -  °F | °C
As of 11:35 AM on Monday 26 Jan 2015 (Local Time) from KEFK Reporting Station
Clear Clear  
Wind Chill: -12°   Ceiling: Unl
Heat Index: -2°   Visibility: 10mi
Dew Point: -9°   Wind: 5mph
Humidity: 75%   Direction: 350°N
Pressure: 30.14"   Gusts: NA
Location:  44.6401°N, 72.1245°W
Report Text: KEFK 261635Z AUTO 35004KT 10SM CLR M19/M22 A3014 RMK AO2 T11901225
Loading
Personal Weather Stations






























Interactive Weather Map New forecast layout! Learn more

10-Day Weather Forecast

Advertisements
Track Severe Weather on mobile